Main page
METAR-TAF:

METAR-TAF

Airports :

St. Gallen–Altenrhein Airport

St. Gallen, Switzerland

latitude: 47-29-06N, longitude: 009-33-43E, elevation: 398 m

Current weather observation

The report was made 35 minutes ago, at 12:50 UTC
Wind 2 kt from variable directions
Temperature 20°C
Humidity 37%
Pressure 1017 hPa
Visibility 10 km or more

METAR: LSZR 211250Z AUTO VRB02KT 9999 NCD 20/05 Q1017

Time: 15:25 (13:25 UTC)

Forecast

The report was made 2 hours and 0 minutes ago, at 11:25 UTC
Forecast valid from 21 at 12 UTC to 21 at 21 UTC
Wind 3 kt from variable directions
Visibility 10 km or more
no clouds below 1500 m and no cumulonimbus

TAF: LSZR 211125Z 2112/2121 VRB03KT CAVOK

Weather observations and forecasts of more than 4000 airports (METAR and TAF reports).

The available stations are represented by yellow and red dots on the map.

Hover mouse over dot to see the name of the station.

Then click to see weather observations and forecasts.

To change the map : click on the green buttons with a black cross to zoom in, on the green button with a dash to zoom out, or on the green arrows for adjacent maps.


METAR-TAF: